createdAt,value
2016-12-26T20:37:55.164Z,99.99
2016-12-26T20:38:55.825Z,99.99
2016-12-26T20:39:56.461Z,99.99
2016-12-26T20:40:57.110Z,99.99
2016-12-26T20:41:57.753Z,99.99
2016-12-26T20:42:58.400Z,99.99
2016-12-26T20:43:59.029Z,99.99
2016-12-26T20:44:59.669Z,99.99
2016-12-26T20:46:00.379Z,99.99
2016-12-26T20:47:01.055Z,99.58
2016-12-26T20:48:01.737Z,98.54
2016-12-26T20:49:02.394Z,98.63
2016-12-26T20:50:03.039Z,98.82
2016-12-26T20:51:03.699Z,98.92
2016-12-26T20:52:04.343Z,99.68
2016-12-26T20:53:04.990Z,99.3
2016-12-26T20:54:05.645Z,99.49
2016-12-26T20:55:06.294Z,99.49
2016-12-26T20:56:06.952Z,99.58
2016-12-26T20:57:07.593Z,99.99
2016-12-26T20:58:08.265Z,99.99
2016-12-26T20:59:08.904Z,99.99
2016-12-26T21:00:09.555Z,99.99
2016-12-26T21:01:10.225Z,99.99
2016-12-26T21:02:10.902Z,99.99
2016-12-26T21:03:11.568Z,99.99
2016-12-26T21:04:12.222Z,99.99
2016-12-26T21:05:12.893Z,99.99
2016-12-26T21:06:13.547Z,99.99
2016-12-26T21:07:14.187Z,99.99
2016-12-26T21:08:14.873Z,99.99
2016-12-26T21:09:15.529Z,99.99
2016-12-26T21:10:16.225Z,99.99
2016-12-26T21:11:16.871Z,99.99
2016-12-26T21:12:17.546Z,99.99
2016-12-26T21:13:18.208Z,99.99
2016-12-26T21:14:18.881Z,99.99
2016-12-26T21:15:19.545Z,99.99
2016-12-26T21:16:20.180Z,99.99
2016-12-26T21:17:20.851Z,99.99
2016-12-26T21:18:21.505Z,99.99
2016-12-26T21:19:22.160Z,99.99
2016-12-26T21:20:22.823Z,99.99
2016-12-26T21:21:23.483Z,99.99
2016-12-26T21:22:24.238Z,99.99
2016-12-26T21:23:24.928Z,99.99
2016-12-26T21:24:25.659Z,99.73
2016-12-26T21:25:26.327Z,99.54
2016-12-26T21:26:26.988Z,99.73
2016-12-26T21:27:27.660Z,99.99
2016-12-26T21:28:28.362Z,99.99
2016-12-26T21:29:29.025Z,99.99
2016-12-26T21:30:29.710Z,99.99
2016-12-26T21:31:30.406Z,99.99
2016-12-26T21:32:31.137Z,99.99
2016-12-26T21:33:31.863Z,99.99
2016-12-26T21:34:32.524Z,99.99
2016-12-26T21:35:33.223Z,99.99
2016-12-26T21:36:33.876Z,99.99
2016-12-26T21:37:34.552Z,99.99
2016-12-26T21:38:35.842Z,99.99
2016-12-26T21:39:36.499Z,99.99
2016-12-26T21:40:37.205Z,99.99
2016-12-26T21:41:37.956Z,99.99
2016-12-26T21:42:38.703Z,99.99
2016-12-26T21:43:39.360Z,99.99
2016-12-26T21:44:40.028Z,99.99
2016-12-26T21:45:40.705Z,99.99
2016-12-26T21:46:41.453Z,99.99
2016-12-26T21:47:42.100Z,99.99
2016-12-26T21:48:42.770Z,99.99
2016-12-26T21:49:43.445Z,99.99
2016-12-26T21:50:44.205Z,99.99
2016-12-26T21:51:44.912Z,99.99
2016-12-26T21:52:45.810Z,99.99
2016-12-26T21:53:46.500Z,99.99
2016-12-26T21:54:47.178Z,99.99
2016-12-26T21:55:47.890Z,99.99
2016-12-26T21:56:48.561Z,99.99
2016-12-26T21:57:49.227Z,99.99
2016-12-26T21:58:49.968Z,99.99
2016-12-26T21:59:50.631Z,99.99
2016-12-26T22:00:51.324Z,99.99
2016-12-26T22:01:52.000Z,99.99
2016-12-26T22:02:52.808Z,99.99
2016-12-26T22:03:53.493Z,99.99
2016-12-26T22:04:54.313Z,99.99
2016-12-26T22:05:55.013Z,99.99
2016-12-26T22:06:55.737Z,99.99
2016-12-26T22:07:56.601Z,99.99
2016-12-26T22:08:57.133Z,99.99
2016-12-26T22:09:57.942Z,99.99
2016-12-26T22:10:58.607Z,99.99
2016-12-26T22:11:59.381Z,99.99
2016-12-26T22:13:00.056Z,99.99
2016-12-26T22:14:00.751Z,99.99
2016-12-26T22:15:01.495Z,99.99
2016-12-26T22:16:02.271Z,99.99
2016-12-26T22:17:03.050Z,99.99
2016-12-26T22:18:03.724Z,99.99
2016-12-26T22:19:04.432Z,99.99
2016-12-26T22:20:05.108Z,99.99
2016-12-26T22:21:05.785Z,99.99
2016-12-26T22:22:06.466Z,99.99
2016-12-26T22:23:07.138Z,99.99
2016-12-26T22:24:07.972Z,99.99
2016-12-26T22:25:08.683Z,99.99
2016-12-26T22:26:09.416Z,99.99
2016-12-26T22:27:10.063Z,99.99
2016-12-26T22:28:10.722Z,99.99
2016-12-26T22:29:11.610Z,99.99
2016-12-26T22:30:12.266Z,99.99
2016-12-26T22:31:12.922Z,99.99
2016-12-26T22:32:13.586Z,99.99
2016-12-26T22:33:14.257Z,99.99
2016-12-26T22:34:14.896Z,99.99
2016-12-26T22:35:15.560Z,99.99
2016-12-26T22:36:16.233Z,99.99
2016-12-26T22:37:16.900Z,99.99
2016-12-26T22:38:17.560Z,99.99
2016-12-26T22:39:18.250Z,99.99
2016-12-26T22:40:18.925Z,99.99
2016-12-26T22:41:19.624Z,99.99
2016-12-26T22:42:20.281Z,99.99
2016-12-26T22:43:20.944Z,99.99
2016-12-26T22:44:21.603Z,99.99
2016-12-26T22:45:22.293Z,99.99
2016-12-26T22:46:22.958Z,99.99
2016-12-26T22:47:23.628Z,99.99
2016-12-26T22:48:24.294Z,99.99
2016-12-26T22:49:24.966Z,99.99
2016-12-26T22:50:25.640Z,99.99
2016-12-26T22:51:26.306Z,99.54
2016-12-26T22:52:26.983Z,99.44
2016-12-26T22:53:27.669Z,98.87
2016-12-26T22:54:28.327Z,98.49
2016-12-26T22:55:28.981Z,98.3
2016-12-26T22:56:29.627Z,98.78
2016-12-26T22:57:30.298Z,98.4
2016-12-26T22:58:30.948Z,98.4
2016-12-26T22:59:31.599Z,98.3
2016-12-26T23:00:32.254Z,98.68
2016-12-26T23:01:32.911Z,98.59
2016-12-26T23:02:33.671Z,98.21
2016-12-26T23:03:34.302Z,98.4
2016-12-26T23:04:34.957Z,97.74
2016-12-26T23:05:35.643Z,98.02
2016-12-26T23:06:36.290Z,98.11
2016-12-26T23:07:36.951Z,98.11
2016-12-26T23:08:37.604Z,97.64
2016-12-26T23:09:38.404Z,98.11
2016-12-26T23:10:39.062Z,98.11
2016-12-26T23:11:39.715Z,98.02
2016-12-26T23:12:40.364Z,97.07
2016-12-26T23:13:41.013Z,97.26
2016-12-26T23:14:41.767Z,97.26
2016-12-26T23:15:42.401Z,97.17
2016-12-26T23:16:43.084Z,96.88
2016-12-26T23:17:43.748Z,97.36
2016-12-26T23:18:44.396Z,97.26
2016-12-26T23:19:45.046Z,96.97
2016-12-26T23:20:45.708Z,96.78
2016-12-26T23:21:46.353Z,95.74
2016-12-26T23:22:47.000Z,95.84
2016-12-26T23:23:47.656Z,95.36
2016-12-26T23:24:48.320Z,95.07
2016-12-26T23:25:48.988Z,94.98
2016-12-26T23:26:49.649Z,94.7
2016-12-26T23:27:50.313Z,94.32
2016-12-26T23:28:50.983Z,94.23
2016-12-26T23:29:51.685Z,94.32
2016-12-26T23:30:52.361Z,93.65
2016-12-26T23:31:53.095Z,95.79
2016-12-26T23:32:53.775Z,94.46
2016-12-26T23:33:54.437Z,94.18
2016-12-26T23:34:55.108Z,93.65
2016-12-26T23:35:55.778Z,93.08
2016-12-26T23:36:56.439Z,92.14
2016-12-26T23:37:57.092Z,92.33
2016-12-26T23:38:57.747Z,92.99
2016-12-26T23:39:58.418Z,92.8
2016-12-26T23:40:59.091Z,92.9
2016-12-26T23:41:59.753Z,93.46
2016-12-26T23:43:00.420Z,93.41
2016-12-26T23:44:01.086Z,92.94
2016-12-26T23:45:01.765Z,92.9
2016-12-26T23:46:02.429Z,93.51
2016-12-26T23:47:03.091Z,93.32
2016-12-26T23:48:03.744Z,93.32
2016-12-26T23:49:04.466Z,93.89
2016-12-26T23:50:05.112Z,94.18
2016-12-26T23:51:05.763Z,94.23
2016-12-26T23:52:06.417Z,93.99
2016-12-26T23:53:07.141Z,93.99
2016-12-26T23:54:07.803Z,93.99
2016-12-26T23:55:08.460Z,94.84
2016-12-26T23:56:09.110Z,94.93
2016-12-26T23:57:09.767Z,95.22
2016-12-26T23:58:10.443Z,94.93
2016-12-26T23:59:11.109Z,95.41
